createdAt,value
2018-04-14T00:00:04.712Z,67
2018-04-14T00:15:04.597Z,67.7
2018-04-14T00:30:04.779Z,67.2
2018-04-14T00:45:04.521Z,67.1
2018-04-14T01:00:04.958Z,67.9
2018-04-14T01:15:04.338Z,68.5
2018-04-14T01:30:04.466Z,68.5
2018-04-14T01:45:04.613Z,68.2
2018-04-14T02:00:04.745Z,69
2018-04-14T02:15:05.195Z,69.2
2018-04-14T02:30:04.638Z,69.7
2018-04-14T02:45:05.324Z,69.7
2018-04-14T03:00:04.801Z,69.8
2018-04-14T03:15:04.274Z,70.3
2018-04-14T03:30:04.711Z,70.3
2018-04-14T03:45:05.396Z,70.3
2018-04-14T04:00:04.911Z,70.6
2018-04-14T04:15:04.340Z,70.9
2018-04-14T04:30:05.194Z,70.5
2018-04-14T04:45:04.857Z,71.3
2018-04-14T05:00:04.347Z,71.2
2018-04-14T05:15:04.321Z,71.3
2018-04-14T05:30:05.433Z,71.1
2018-04-14T05:45:04.592Z,71.7
2018-04-14T06:00:05.222Z,69.2
2018-04-14T06:15:04.864Z,68.7
2018-04-14T06:30:04.587Z,68.1
2018-04-14T06:45:05.273Z,66.8
2018-04-14T07:00:05.210Z,65
2018-04-14T07:15:04.952Z,62
2018-04-14T07:30:04.803Z,59.6
2018-04-14T07:45:05.631Z,55.6
2018-04-14T08:00:05.030Z,49.2
2018-04-14T08:15:04.738Z,37.7
2018-04-14T08:30:05.007Z,32.5
2018-04-14T08:45:04.648Z,28
2018-04-14T09:00:04.732Z,27.6
2018-04-14T09:15:05.202Z,25.3
2018-04-14T09:30:04.321Z,24.6
2018-04-14T09:45:05.047Z,23.7
2018-04-14T10:00:04.494Z,29.8
2018-04-14T10:15:04.586Z,35.9
2018-04-14T10:30:05.262Z,39.8
2018-04-14T10:45:05.383Z,40.4
2018-04-14T11:00:04.571Z,41.4
2018-04-14T11:15:05.146Z,42.3
2018-04-14T11:30:04.301Z,42.5
2018-04-14T11:45:04.958Z,41
2018-04-14T12:00:04.416Z,40
2018-04-14T12:15:04.872Z,40
2018-04-14T12:30:04.654Z,38.1
2018-04-14T12:45:05.254Z,38.9
2018-04-14T13:00:04.822Z,39.1
2018-04-14T13:15:04.545Z,36.9
2018-04-14T13:30:05.213Z,36.7
2018-04-14T13:45:04.715Z,37
2018-04-14T14:00:05.161Z,36.4
2018-04-14T14:15:04.953Z,36.8
2018-04-14T14:30:04.965Z,36.2
2018-04-14T14:45:04.305Z,35.6
2018-04-14T15:00:05.504Z,35.9
2018-04-14T15:15:04.676Z,37.2
2018-04-14T15:30:05.319Z,37.5
2018-04-14T15:45:05.407Z,38.1
2018-04-14T16:00:04.980Z,38.7
2018-04-14T16:15:05.041Z,39.1
2018-04-14T16:30:05.439Z,39.7
2018-04-14T16:45:04.930Z,40.1
2018-04-14T17:00:04.876Z,39.4
2018-04-14T17:15:04.886Z,39.7
2018-04-14T17:30:04.544Z,39.5
2018-04-14T17:45:05.607Z,40.5
2018-04-14T18:00:05.396Z,41.8
2018-04-14T18:15:05.222Z,42.5
2018-04-14T18:30:04.662Z,43.3
2018-04-14T18:45:04.578Z,44
2018-04-14T19:00:04.937Z,45.1
2018-04-14T19:15:04.665Z,45.2
2018-04-14T19:30:04.723Z,46.9
2018-04-14T19:45:05.253Z,47.9
2018-04-14T20:00:04.780Z,48.7
2018-04-14T20:15:04.407Z,49.6
2018-04-14T20:30:05.116Z,51.8
2018-04-14T20:45:05.309Z,52.1
2018-04-14T21:00:05.329Z,52.1
2018-04-14T21:15:04.789Z,52.5
2018-04-14T21:30:05.518Z,53.6
2018-04-14T21:45:04.990Z,53.7
2018-04-14T22:00:04.462Z,54.6
2018-04-14T22:15:04.944Z,55.1
2018-04-14T22:30:04.922Z,55.5
2018-04-14T22:45:05.092Z,56.1
2018-04-14T23:00:05.098Z,56.7
2018-04-14T23:15:05.046Z,58
2018-04-14T23:30:05.580Z,57.1
2018-04-14T23:45:04.552Z,58.5
